createdAt,value
2023-05-17T00:00:12.527Z,49.91
2023-05-17T00:02:40.929Z,49.89
2023-05-17T00:05:12.700Z,49.78
2023-05-17T00:07:41.119Z,49.81
2023-05-17T00:10:10.348Z,49.87
2023-05-17T00:12:38.703Z,49.96
2023-05-17T00:15:10.005Z,49.97
2023-05-17T00:17:39.824Z,50.14
2023-05-17T00:20:09.630Z,49.80
2023-05-17T00:22:38.639Z,49.95
2023-05-17T00:25:08.001Z,49.89
2023-05-17T00:27:36.473Z,49.79
2023-05-17T00:30:05.995Z,49.67
2023-05-17T00:32:34.350Z,49.72
2023-05-17T00:35:04.227Z,50.08
2023-05-17T00:37:32.611Z,49.82
2023-05-17T00:40:01.004Z,49.89
2023-05-17T00:42:29.305Z,49.62
2023-05-17T00:44:59.795Z,49.64
2023-05-17T00:47:28.280Z,49.58
2023-05-17T00:49:56.994Z,49.21
2023-05-17T00:52:26.830Z,49.24
2023-05-17T00:54:55.169Z,49.06
2023-05-17T00:57:23.731Z,49.09
2023-05-17T00:59:55.461Z,48.96
2023-05-17T01:02:23.912Z,48.94
2023-05-17T01:04:52.365Z,49.23
2023-05-17T01:07:20.750Z,48.91
2023-05-17T01:09:51.001Z,48.63
2023-05-17T01:12:34.298Z,48.77
2023-05-17T01:15:15.688Z,48.71
2023-05-17T01:17:53.666Z,48.60
2023-05-17T01:20:29.013Z,48.52
2023-05-17T01:23:12.706Z,48.72
2023-05-17T01:26:01.339Z,48.86
2023-05-17T01:28:32.964Z,48.78
2023-05-17T01:31:04.297Z,48.80
2023-05-17T01:33:33.627Z,48.53
2023-05-17T01:36:02.020Z,48.55
2023-05-17T01:38:30.391Z,48.27
2023-05-17T01:41:07.242Z,48.34
2023-05-17T01:43:52.307Z,48.33
2023-05-17T01:46:29.604Z,48.20
2023-05-17T01:49:12.482Z,48.30
2023-05-17T01:51:49.253Z,48.09
2023-05-17T01:54:24.655Z,47.96
2023-05-17T01:56:59.221Z,48.14
2023-05-17T01:59:30.726Z,48.07
2023-05-17T02:02:06.118Z,47.82
2023-05-17T02:04:38.107Z,48.04
2023-05-17T02:07:06.696Z,47.87
2023-05-17T02:09:35.071Z,47.83
2023-05-17T02:12:03.396Z,47.92
2023-05-17T02:17:10.462Z,47.86
2023-05-17T02:19:38.774Z,47.84
2023-05-17T02:22:07.076Z,47.90
2023-05-17T02:24:35.389Z,47.72
2023-05-17T02:27:04.524Z,47.83
2023-05-17T02:29:32.826Z,47.76
2023-05-17T02:32:01.138Z,47.78
2023-05-17T02:34:30.864Z,47.78
2023-05-17T02:36:59.234Z,47.64
2023-05-17T02:39:27.539Z,47.55
2023-05-17T02:41:55.857Z,47.55
2023-05-17T02:44:24.235Z,47.59
2023-05-17T02:46:52.554Z,47.55
2023-05-17T02:49:20.922Z,47.59
2023-05-17T02:51:50.596Z,47.20
2023-05-17T02:54:18.909Z,47.06
2023-05-17T02:56:47.198Z,47.16
2023-05-17T02:59:16.128Z,46.90
2023-05-17T03:01:44.540Z,47.02
2023-05-17T03:04:12.994Z,47.08
2023-05-17T03:06:41.353Z,46.85
2023-05-17T03:09:13.924Z,46.67
2023-05-17T03:11:42.194Z,46.84
2023-05-17T03:14:10.622Z,46.63
2023-05-17T03:16:38.960Z,46.76
2023-05-17T03:19:10.346Z,46.82
2023-05-17T03:21:38.741Z,46.77
2023-05-17T03:24:08.421Z,46.62
2023-05-17T03:26:38.153Z,46.83
2023-05-17T03:29:06.455Z,46.51
2023-05-17T03:31:34.828Z,46.74
2023-05-17T03:34:03.226Z,46.78
2023-05-17T03:36:31.793Z,46.67
2023-05-17T03:39:00.230Z,46.70
2023-05-17T03:41:28.588Z,46.92
2023-05-17T03:43:58.273Z,47.01
2023-05-17T03:46:26.807Z,46.77
2023-05-17T03:48:55.249Z,46.78
2023-05-17T03:51:26.444Z,46.62
2023-05-17T03:54:00.877Z,46.68
2023-05-17T03:56:29.198Z,46.75
2023-05-17T03:58:58.897Z,46.72
2023-05-17T04:01:27.345Z,46.87
2023-05-17T04:03:55.741Z,46.83
2023-05-17T04:06:24.190Z,46.76
2023-05-17T04:08:55.885Z,46.56
2023-05-17T04:11:26.755Z,46.56
2023-05-17T04:13:56.873Z,46.65
2023-05-17T04:16:26.656Z,46.21
2023-05-17T04:18:55.242Z,46.16
2023-05-17T04:21:23.697Z,46.42
2023-05-17T04:23:52.052Z,46.19
2023-05-17T04:26:20.783Z,45.90
2023-05-17T04:28:52.410Z,46.18
2023-05-17T04:31:28.338Z,46.27
2023-05-17T04:33:57.015Z,46.01
2023-05-17T04:36:25.551Z,46.10
2023-05-17T04:38:56.686Z,46.03
2023-05-17T04:41:30.070Z,46.41
2023-05-17T04:43:58.662Z,46.23
2023-05-17T04:46:28.326Z,45.90
2023-05-17T04:48:57.400Z,46.43
2023-05-17T04:51:27.043Z,45.89
2023-05-17T04:53:55.385Z,45.92
2023-05-17T04:56:23.763Z,46.01
2023-05-17T04:58:52.964Z,45.63
2023-05-17T05:01:22.180Z,45.83
2023-05-17T05:03:51.884Z,45.55
2023-05-17T05:06:22.068Z,45.96
2023-05-17T05:08:50.406Z,46.00
2023-05-17T05:11:21.515Z,46.09
2023-05-17T05:13:49.835Z,46.16
2023-05-17T05:16:18.228Z,46.17
2023-05-17T05:18:46.688Z,46.18
2023-05-17T05:21:16.498Z,46.15
2023-05-17T05:23:44.901Z,45.92
2023-05-17T05:26:13.341Z,46.11
2023-05-17T05:28:41.736Z,46.05
2023-05-17T05:31:10.050Z,46.20
2023-05-17T05:33:38.512Z,46.25
2023-05-17T05:36:07.987Z,46.16
2023-05-17T05:38:38.138Z,46.15
2023-05-17T05:41:06.531Z,46.50
2023-05-17T05:43:36.223Z,46.34
2023-05-17T05:46:04.759Z,46.51
2023-05-17T05:48:39.482Z,46.43
2023-05-17T05:51:07.998Z,46.53
2023-05-17T05:53:37.711Z,46.67
2023-05-17T05:56:06.862Z,46.68
2023-05-17T05:58:38.161Z,46.72
2023-05-17T06:01:06.931Z,46.73
2023-05-17T06:03:35.277Z,46.54
2023-05-17T06:06:03.692Z,46.58
2023-05-17T06:08:32.125Z,46.69
2023-05-17T06:11:01.802Z,46.60
2023-05-17T06:13:30.226Z,46.43
2023-05-17T06:15:59.603Z,46.64
2023-05-17T06:18:28.166Z,46.48
2023-05-17T06:20:56.574Z,46.37
2023-05-17T06:23:25.693Z,46.34
2023-05-17T06:25:54.135Z,45.98
2023-05-17T06:28:23.999Z,46.30
2023-05-17T06:30:52.374Z,46.40
2023-05-17T06:33:20.726Z,46.46
2023-05-17T06:38:22.947Z,46.19
2023-05-17T06:40:54.199Z,46.03
2023-05-17T06:43:24.440Z,45.94
2023-05-17T06:45:53.171Z,46.41
2023-05-17T06:48:21.720Z,46.21
2023-05-17T06:50:50.249Z,46.42
2023-05-17T06:53:18.802Z,46.35
2023-05-17T06:55:47.262Z,46.50
2023-05-17T06:58:15.812Z,46.15
2023-05-17T07:00:45.722Z,45.96
2023-05-17T07:03:16.550Z,46.20
2023-05-17T07:05:44.960Z,46.16
2023-05-17T07:08:15.023Z,45.80
2023-05-17T07:10:43.336Z,45.28
2023-05-17T07:13:11.669Z,45.17
2023-05-17T07:15:40.052Z,45.28
2023-05-17T07:18:09.909Z,45.98
2023-05-17T07:20:38.330Z,45.58
2023-05-17T07:23:09.698Z,45.36
2023-05-17T07:25:40.664Z,45.61
2023-05-17T07:28:09.026Z,45.52
2023-05-17T07:30:37.379Z,45.42
2023-05-17T07:33:05.914Z,45.31
2023-05-17T07:35:35.846Z,45.34
2023-05-17T07:38:04.213Z,44.74
2023-05-17T07:40:32.626Z,44.82
2023-05-17T07:43:01.152Z,44.31
2023-05-17T07:45:29.997Z,44.76
2023-05-17T07:47:58.612Z,44.03
2023-05-17T07:50:28.062Z,43.83
2023-05-17T07:52:58.046Z,43.30
2023-05-17T07:55:26.607Z,42.94
2023-05-17T07:57:55.076Z,42.99
2023-05-17T08:00:24.735Z,42.63
2023-05-17T08:02:53.283Z,42.74
2023-05-17T08:05:21.870Z,42.31
2023-05-17T08:07:50.316Z,41.93
2023-05-17T08:10:20.421Z,41.73
2023-05-17T08:12:48.807Z,42.28
2023-05-17T08:15:17.156Z,41.86
2023-05-17T08:17:45.792Z,41.53
2023-05-17T08:20:14.641Z,41.20
2023-05-17T08:22:43.086Z,41.05
2023-05-17T08:25:12.125Z,41.21
2023-05-17T08:27:44.584Z,40.95
2023-05-17T08:30:17.969Z,40.26
2023-05-17T08:32:50.097Z,40.49
2023-05-17T08:35:18.801Z,40.44
2023-05-17T08:37:47.171Z,40.37
2023-05-17T08:40:20.205Z,40.46
2023-05-17T08:42:50.983Z,40.11
2023-05-17T08:45:20.050Z,39.67
2023-05-17T08:47:49.370Z,39.57
2023-05-17T08:50:17.835Z,39.23
2023-05-17T08:52:47.623Z,38.53
2023-05-17T08:55:16.408Z,38.84
2023-05-17T08:57:45.990Z,39.02
2023-05-17T09:00:21.096Z,39.15
2023-05-17T09:02:52.510Z,39.48
2023-05-17T09:05:21.322Z,39.37
2023-05-17T09:07:50.561Z,38.87
2023-05-17T09:10:19.117Z,38.97
2023-05-17T09:12:47.743Z,39.10
2023-05-17T09:15:22.997Z,38.73
2023-05-17T09:17:53.867Z,38.70
2023-05-17T09:20:25.982Z,38.83
2023-05-17T09:22:54.454Z,38.21
2023-05-17T09:25:26.303Z,38.74
2023-05-17T09:27:55.391Z,38.35
2023-05-17T09:30:31.508Z,38.99
2023-05-17T09:33:07.123Z,38.42
2023-05-17T09:35:37.179Z,38.12
2023-05-17T09:38:09.052Z,38.50
2023-05-17T09:40:40.909Z,39.01
2023-05-17T09:43:10.326Z,38.61
2023-05-17T09:45:41.235Z,38.81
2023-05-17T09:48:14.944Z,38.06
2023-05-17T09:50:47.451Z,37.48
2023-05-17T09:53:38.441Z,37.94
2023-05-17T09:56:08.281Z,37.68
2023-05-17T09:58:39.354Z,37.20
2023-05-17T10:01:11.299Z,37.13
2023-05-17T10:03:40.147Z,36.71
2023-05-17T10:06:13.384Z,36.63
2023-05-17T10:08:54.092Z,36.81
2023-05-17T10:11:28.148Z,36.87
2023-05-17T10:14:08.479Z,36.60
2023-05-17T10:16:39.861Z,37.27
2023-05-17T10:21:37.747Z,36.66
2023-05-17T10:24:08.063Z,36.54
2023-05-17T10:26:38.593Z,36.50
2023-05-17T10:29:07.498Z,36.55
2023-05-17T10:31:37.551Z,36.57
2023-05-17T10:34:07.532Z,36.79
2023-05-17T10:36:36.095Z,36.78
2023-05-17T10:39:04.865Z,36.31
2023-05-17T10:41:36.434Z,36.34
2023-05-17T10:44:08.012Z,36.56
2023-05-17T10:46:38.226Z,36.44
2023-05-17T10:49:07.176Z,36.53
2023-05-17T10:51:38.277Z,35.24
2023-05-17T10:54:11.684Z,34.81
2023-05-17T10:56:49.518Z,35.82
2023-05-17T10:59:23.552Z,35.57
2023-05-17T11:02:11.751Z,35.71
2023-05-17T11:04:42.229Z,34.25
2023-05-17T11:07:27.292Z,34.28
2023-05-17T11:09:57.658Z,33.85
2023-05-17T11:12:38.579Z,34.35
2023-05-17T11:15:10.783Z,34.40
2023-05-17T11:17:56.182Z,34.18
2023-05-17T11:20:36.932Z,33.07
2023-05-17T11:23:18.795Z,33.72
2023-05-17T11:25:49.300Z,34.31
2023-05-17T11:28:23.014Z,34.39
2023-05-17T11:30:53.705Z,34.75
2023-05-17T11:33:40.367Z,34.84
2023-05-17T11:36:19.344Z,34.14
2023-05-17T11:38:55.174Z,34.07
2023-05-17T11:41:30.744Z,34.55
2023-05-17T11:43:59.515Z,34.45
2023-05-17T11:46:27.880Z,33.42
2023-05-17T11:48:58.560Z,34.63
2023-05-17T11:51:27.655Z,34.95
2023-05-17T11:53:56.642Z,35.00
2023-05-17T11:56:35.684Z,35.11
2023-05-17T11:59:11.321Z,33.89
2023-05-17T12:01:47.542Z,34.57
2023-05-17T12:04:26.335Z,34.95
2023-05-17T12:06:56.044Z,34.45
2023-05-17T12:09:26.149Z,34.21
2023-05-17T12:11:55.627Z,35.12
2023-05-17T12:14:24.099Z,34.71
2023-05-17T12:16:56.295Z,34.30
2023-05-17T12:19:29.829Z,34.69
2023-05-17T12:22:09.458Z,34.48
2023-05-17T12:24:42.632Z,34.60
2023-05-17T12:27:11.598Z,34.68
2023-05-17T12:29:40.377Z,34.27
2023-05-17T12:32:11.633Z,34.57
2023-05-17T12:34:41.933Z,35.23
2023-05-17T12:37:10.984Z,35.29
2023-05-17T12:39:39.861Z,35.43
2023-05-17T12:42:09.616Z,34.75
2023-05-17T12:44:38.109Z,34.93
2023-05-17T12:47:06.911Z,35.17
2023-05-17T12:49:41.267Z,35.50
2023-05-17T12:52:11.645Z,35.75
2023-05-17T12:54:41.925Z,36.00
2023-05-17T12:57:16.184Z,36.25
2023-05-17T12:59:49.307Z,37.04
2023-05-17T13:02:18.629Z,36.96
2023-05-17T13:04:48.681Z,36.48
2023-05-17T13:07:24.691Z,36.43
2023-05-17T13:09:53.231Z,36.46
2023-05-17T13:12:23.946Z,36.21
2023-05-17T13:14:54.701Z,36.85
2023-05-17T13:17:28.537Z,36.29
2023-05-17T13:19:58.644Z,36.34
2023-05-17T13:22:27.252Z,35.78
2023-05-17T13:24:56.437Z,34.73
2023-05-17T13:27:24.823Z,34.99
2023-05-17T13:29:57.792Z,34.17
2023-05-17T13:32:26.315Z,33.70
2023-05-17T13:34:55.008Z,33.88
2023-05-17T13:37:24.885Z,33.80
2023-05-17T13:39:54.808Z,33.20
2023-05-17T13:42:23.826Z,33.00
2023-05-17T13:44:55.088Z,33.19
2023-05-17T13:47:24.153Z,32.92
2023-05-17T13:49:52.889Z,33.20
2023-05-17T13:52:23.069Z,33.40
2023-05-17T13:54:52.923Z,33.39
2023-05-17T13:57:21.314Z,33.01
2023-05-17T13:59:49.922Z,33.22
2023-05-17T14:02:18.382Z,32.89
2023-05-17T14:04:46.821Z,33.51
2023-05-17T14:07:15.121Z,33.15
2023-05-17T14:09:43.739Z,33.16
2023-05-17T14:12:13.704Z,33.46
2023-05-17T14:14:42.050Z,33.39
2023-05-17T14:17:10.383Z,33.94
2023-05-17T14:19:38.904Z,33.23
2023-05-17T14:22:08.833Z,33.64
2023-05-17T14:24:37.185Z,33.79
2023-05-17T14:27:06.231Z,33.85
2023-05-17T14:29:35.952Z,33.46
2023-05-17T14:32:04.608Z,33.11
2023-05-17T14:34:35.193Z,33.04
2023-05-17T14:37:03.464Z,32.61
2023-05-17T14:39:31.853Z,33.79
2023-05-17T14:42:00.241Z,33.62
2023-05-17T14:44:28.549Z,34.46
2023-05-17T14:46:58.307Z,33.98
2023-05-17T14:49:26.656Z,34.10
2023-05-17T14:51:54.930Z,33.60
2023-05-17T14:54:29.735Z,33.70
2023-05-17T14:56:58.569Z,34.12
2023-05-17T14:59:27.179Z,34.32
2023-05-17T15:01:56.892Z,33.90
2023-05-17T15:04:32.973Z,34.35
2023-05-17T15:07:01.351Z,34.03
2023-05-17T15:09:30.853Z,33.40
2023-05-17T15:11:59.267Z,33.97
2023-05-17T15:14:27.706Z,34.02
2023-05-17T15:16:57.539Z,34.03
2023-05-17T15:19:26.542Z,33.67
2023-05-17T15:21:55.110Z,33.66
2023-05-17T15:24:23.529Z,33.43
2023-05-17T15:26:51.986Z,33.28
2023-05-17T15:29:20.406Z,33.08
2023-05-17T15:31:48.772Z,33.27
2023-05-17T15:34:18.636Z,33.56
2023-05-17T15:36:48.297Z,33.78
2023-05-17T15:39:16.763Z,34.09
2023-05-17T15:41:45.598Z,34.19
2023-05-17T15:44:14.033Z,33.82
2023-05-17T15:46:42.436Z,33.73
2023-05-17T15:49:10.988Z,34.02
2023-05-17T15:51:40.895Z,34.11
2023-05-17T15:54:09.366Z,33.69
2023-05-17T15:56:38.711Z,33.64
2023-05-17T15:59:07.790Z,34.05
2023-05-17T16:01:36.368Z,33.67
2023-05-17T16:04:04.813Z,33.87
2023-05-17T16:06:36.087Z,34.03
2023-05-17T16:09:06.128Z,33.95
2023-05-17T16:11:34.608Z,33.97
2023-05-17T16:14:03.099Z,34.25
2023-05-17T16:16:31.475Z,34.44
2023-05-17T16:19:01.112Z,34.32
2023-05-17T16:21:29.527Z,34.57
2023-05-17T16:23:57.918Z,34.87
2023-05-17T16:26:30.318Z,34.78
2023-05-17T16:28:58.781Z,34.87
2023-05-17T16:31:27.321Z,34.79
2023-05-17T16:33:55.859Z,34.53
2023-05-17T16:36:25.246Z,34.90
2023-05-17T16:38:53.728Z,34.61
2023-05-17T16:41:22.496Z,34.94
2023-05-17T16:43:52.241Z,34.81
2023-05-17T16:46:24.633Z,34.55
2023-05-17T16:48:55.507Z,34.80
2023-05-17T16:51:24.345Z,34.79
2023-05-17T16:53:52.729Z,34.62
2023-05-17T16:56:22.123Z,34.96
2023-05-17T16:58:52.307Z,35.01
2023-05-17T17:01:21.303Z,35.22
2023-05-17T17:03:49.655Z,35.43
2023-05-17T17:06:18.071Z,35.62
2023-05-17T17:08:46.602Z,35.80
2023-05-17T17:11:15.091Z,35.62
2023-05-17T17:13:43.551Z,35.70
2023-05-17T17:16:13.380Z,35.66
2023-05-17T17:18:41.803Z,35.90
2023-05-17T17:21:10.382Z,35.72
2023-05-17T17:23:39.816Z,35.89
2023-05-17T17:26:11.323Z,35.70
2023-05-17T17:28:39.946Z,35.83
2023-05-17T17:31:08.718Z,36.17
2023-05-17T17:33:38.811Z,36.33
2023-05-17T17:36:09.269Z,36.18
2023-05-17T17:38:37.795Z,36.22
2023-05-17T17:41:06.369Z,36.54
2023-05-17T17:43:34.838Z,36.43
2023-05-17T17:46:03.390Z,36.46
2023-05-17T17:48:31.887Z,36.35
2023-05-17T17:51:01.811Z,36.55
2023-05-17T17:53:30.260Z,36.47
2023-05-17T17:55:58.659Z,36.56
2023-05-17T17:58:26.986Z,36.40
2023-05-17T18:00:55.534Z,36.43
2023-05-17T18:03:23.994Z,36.61
2023-05-17T18:05:52.427Z,36.66
2023-05-17T18:08:22.198Z,36.52
2023-05-17T18:10:50.633Z,36.44
2023-05-17T18:13:19.001Z,36.45
2023-05-17T18:15:47.448Z,36.61
2023-05-17T18:18:16.107Z,36.51
2023-05-17T18:20:44.569Z,36.68
2023-05-17T18:23:13.033Z,36.64
2023-05-17T18:25:42.827Z,36.62
2023-05-17T18:28:11.180Z,36.82
2023-05-17T18:30:40.081Z,36.83
2023-05-17T18:33:08.677Z,36.82
2023-05-17T18:35:37.281Z,37.26
2023-05-17T18:38:05.778Z,36.98
2023-05-17T18:40:34.271Z,37.07
2023-05-17T18:43:04.102Z,37.09
2023-05-17T18:45:41.521Z,37.24
2023-05-17T18:48:09.972Z,37.23
2023-05-17T18:50:38.447Z,37.50
2023-05-17T18:53:06.851Z,37.69
2023-05-17T18:55:35.289Z,37.50
2023-05-17T18:58:05.055Z,37.59
2023-05-17T19:00:33.546Z,37.60
2023-05-17T19:03:02.079Z,37.74
2023-05-17T19:05:30.582Z,37.68
2023-05-17T19:07:58.973Z,38.16
2023-05-17T19:10:27.467Z,38.33
2023-05-17T19:12:55.850Z,38.54
2023-05-17T19:15:25.833Z,38.58
2023-05-17T19:17:54.287Z,38.82
2023-05-17T19:20:24.458Z,38.97
2023-05-17T19:22:52.856Z,38.87
2023-05-17T19:25:21.371Z,38.88
2023-05-17T19:27:49.734Z,38.82
2023-05-17T19:30:20.891Z,38.86
2023-05-17T19:32:51.199Z,38.89
2023-05-17T19:35:19.754Z,38.83
2023-05-17T19:37:48.123Z,39.07
2023-05-17T19:40:18.804Z,38.96
2023-05-17T19:42:47.173Z,39.22
2023-05-17T19:45:15.798Z,39.14
2023-05-17T19:47:44.516Z,39.37
2023-05-17T19:50:17.484Z,39.49
2023-05-17T19:52:46.116Z,39.54
2023-05-17T19:55:15.944Z,39.61
2023-05-17T19:57:44.297Z,39.59
2023-05-17T20:00:23.362Z,39.59
2023-05-17T20:02:52.098Z,39.76
2023-05-17T20:05:22.106Z,39.69
2023-05-17T20:07:50.824Z,39.68
2023-05-17T20:10:19.243Z,39.57
2023-05-17T20:12:48.143Z,39.23
2023-05-17T20:15:22.276Z,39.88
2023-05-17T20:17:50.729Z,40.14
2023-05-17T20:20:19.225Z,40.39
2023-05-17T20:22:49.585Z,40.23
2023-05-17T20:25:20.699Z,40.46
2023-05-17T20:27:49.173Z,40.81
2023-05-17T20:30:17.503Z,40.58
2023-05-17T20:32:45.877Z,40.85
2023-05-17T20:35:19.810Z,40.89
2023-05-17T20:37:49.555Z,40.81
2023-05-17T20:40:18.067Z,41.21
2023-05-17T20:42:47.341Z,41.32
2023-05-17T20:45:23.746Z,41.23
2023-05-17T20:47:52.613Z,41.24
2023-05-17T20:50:21.669Z,41.21
2023-05-17T20:52:51.764Z,41.37
2023-05-17T20:55:20.167Z,41.34
2023-05-17T20:57:48.702Z,41.18
2023-05-17T21:00:18.088Z,41.69
2023-05-17T21:02:46.547Z,41.51
2023-05-17T21:05:18.010Z,41.37
2023-05-17T21:07:46.750Z,41.56
2023-05-17T21:10:17.839Z,41.85
2023-05-17T21:12:46.218Z,41.68
2023-05-17T21:18:06.803Z,41.94
2023-05-17T21:20:35.506Z,42.14
2023-05-17T21:23:03.954Z,42.20
2023-05-17T21:25:34.074Z,42.26
2023-05-17T21:28:02.478Z,42.42
2023-05-17T21:30:31.084Z,42.82
2023-05-17T21:32:59.700Z,42.81
2023-05-17T21:35:28.206Z,43.23
2023-05-17T21:37:56.647Z,43.13
2023-05-17T21:40:24.990Z,43.36
2023-05-17T21:42:54.809Z,43.46
2023-05-17T21:45:23.416Z,43.49
2023-05-17T21:47:51.904Z,43.41
2023-05-17T21:50:20.511Z,43.47
2023-05-17T21:52:48.935Z,43.62
2023-05-17T21:55:17.428Z,43.81
2023-05-17T21:57:46.076Z,43.79
2023-05-17T22:00:16.694Z,43.75
2023-05-17T22:02:46.038Z,44.20
2023-05-17T22:05:14.774Z,44.06
2023-05-17T22:07:43.999Z,43.93
2023-05-17T22:10:13.374Z,43.92
2023-05-17T22:12:41.916Z,44.06
2023-05-17T22:15:11.477Z,44.08
2023-05-17T22:17:50.996Z,43.98
2023-05-17T22:20:26.896Z,43.86
2023-05-17T22:22:55.294Z,44.00
2023-05-17T22:25:23.894Z,44.24
2023-05-17T22:27:52.202Z,44.28
2023-05-17T22:30:25.850Z,44.10
2023-05-17T22:32:57.286Z,44.00
2023-05-17T22:35:26.059Z,44.27
2023-05-17T22:37:54.792Z,44.24
2023-05-17T22:40:25.837Z,44.41
2023-05-17T22:42:54.324Z,44.41
2023-05-17T22:45:22.705Z,44.31
2023-05-17T22:47:51.069Z,44.58
2023-05-17T22:50:24.501Z,44.54
2023-05-17T22:52:53.250Z,44.70
2023-05-17T22:55:25.119Z,44.58
2023-05-17T22:57:54.148Z,44.91
2023-05-17T23:00:22.642Z,45.06
2023-05-17T23:02:51.005Z,44.83
2023-05-17T23:05:22.228Z,44.99
2023-05-17T23:07:50.651Z,45.19
2023-05-17T23:10:19.655Z,45.28
2023-05-17T23:12:49.252Z,45.43
2023-05-17T23:15:18.557Z,45.37
2023-05-17T23:17:48.153Z,45.53
2023-05-17T23:20:16.531Z,45.52
2023-05-17T23:22:47.669Z,45.70
2023-05-17T23:25:18.387Z,45.69
2023-05-17T23:27:48.706Z,45.62
2023-05-17T23:30:17.081Z,45.58
2023-05-17T23:32:47.211Z,45.71
2023-05-17T23:35:15.700Z,45.85
2023-05-17T23:37:45.542Z,45.87
2023-05-17T23:40:15.723Z,45.69
2023-05-17T23:42:44.208Z,45.76
2023-05-17T23:45:12.746Z,45.76
2023-05-17T23:47:44.438Z,45.80
2023-05-17T23:50:12.933Z,45.82
2023-05-17T23:52:43.560Z,45.96
2023-05-17T23:55:13.346Z,46.12
2023-05-17T23:57:42.487Z,45.96
